createdAt,value
2018-04-08T00:01:12.279Z,6.80
2018-04-08T00:03:40.426Z,6.70
2018-04-08T00:06:07.935Z,6.50
2018-04-08T00:08:35.388Z,6.50
2018-04-08T00:11:03.014Z,6.50
2018-04-08T00:13:34.646Z,6.40
2018-04-08T00:16:02.232Z,6.40
2018-04-08T00:18:30.848Z,6.30
2018-04-08T00:20:58.326Z,6.30
2018-04-08T00:23:26.110Z,6.30
2018-04-08T00:25:54.292Z,6.20
2018-04-08T00:28:25.585Z,6.10
2018-04-08T00:30:53.040Z,6.20
2018-04-08T00:33:20.524Z,6.20
2018-04-08T00:35:47.974Z,6.30
2018-04-08T00:38:15.452Z,6.30
2018-04-08T00:40:44.546Z,6.40
2018-04-08T00:43:12.038Z,6.40
2018-04-08T00:45:39.503Z,6.40
2018-04-08T00:48:06.976Z,6.40
2018-04-08T00:50:34.450Z,6.30
2018-04-08T00:53:01.904Z,6.20
2018-04-08T00:55:29.382Z,6.10
2018-04-08T00:57:57.772Z,6.10
2018-04-08T01:00:25.227Z,6.20
2018-04-08T01:02:53.463Z,6.20
2018-04-08T01:05:20.936Z,6.20
2018-04-08T01:07:48.390Z,6.10
2018-04-08T01:10:16.966Z,6.10
2018-04-08T01:12:44.404Z,6.10
2018-04-08T01:15:12.504Z,6.10
2018-04-08T01:17:39.949Z,6.00
2018-04-08T01:20:07.423Z,6.00
2018-04-08T01:22:35.409Z,6.10
2018-04-08T01:25:03.629Z,6.10
2018-04-08T01:27:31.367Z,6.10
2018-04-08T01:29:58.804Z,6.00
2018-04-08T01:32:26.305Z,6.00
2018-04-08T01:34:53.752Z,6.00
2018-04-08T01:37:21.197Z,5.90
2018-04-08T01:39:49.758Z,5.80
2018-04-08T01:42:17.224Z,5.80
2018-04-08T01:44:44.721Z,5.80
2018-04-08T01:47:12.276Z,5.60
2018-04-08T01:49:39.777Z,5.50
2018-04-08T01:52:07.247Z,5.40
2018-04-08T01:54:34.702Z,5.30
2018-04-08T01:57:03.873Z,5.30
2018-04-08T01:59:31.366Z,5.30
2018-04-08T02:01:58.853Z,5.20
2018-04-08T02:04:26.296Z,5.10
2018-04-08T02:06:53.910Z,5.10
2018-04-08T02:09:21.387Z,5.10
2018-04-08T02:11:49.125Z,5.00
2018-04-08T02:14:18.003Z,5.10
2018-04-08T02:16:45.451Z,5.10
2018-04-08T02:19:12.921Z,5.10
2018-04-08T02:21:40.494Z,5.10
2018-04-08T02:24:07.975Z,5.10
2018-04-08T02:26:36.345Z,5.20
2018-04-08T02:29:04.561Z,5.20
2018-04-08T02:31:32.266Z,5.20
2018-04-08T02:33:59.730Z,5.10
2018-04-08T02:36:27.320Z,5.10
2018-04-08T02:38:56.491Z,5.10
2018-04-08T02:41:23.925Z,5.10
2018-04-08T02:43:51.735Z,5.20
2018-04-08T02:46:20.404Z,5.30
2018-04-08T02:48:47.863Z,5.30
2018-04-08T02:51:15.403Z,5.40
2018-04-08T02:53:42.896Z,5.50
2018-04-08T02:56:10.350Z,5.30
2018-04-08T02:58:38.001Z,5.20
2018-04-08T03:01:05.444Z,5.20
2018-04-08T03:03:32.923Z,5.10
2018-04-08T03:06:00.380Z,5.00
2018-04-08T03:08:29.527Z,4.80
2018-04-08T03:10:57.013Z,4.80
2018-04-08T03:13:24.457Z,4.70
2018-04-08T03:15:51.932Z,4.80
2018-04-08T03:18:26.332Z,4.70
2018-04-08T03:20:53.976Z,4.80
2018-04-08T03:23:21.433Z,4.70
2018-04-08T03:25:48.888Z,4.70
2018-04-08T03:28:17.125Z,4.50
2018-04-08T03:30:45.360Z,4.50
2018-04-08T03:33:13.149Z,4.50
2018-04-08T03:35:40.621Z,4.50
2018-04-08T03:38:08.056Z,4.50
2018-04-08T03:40:35.844Z,4.50
2018-04-08T03:43:03.312Z,4.70
2018-04-08T03:45:30.858Z,4.80
2018-04-08T03:47:58.341Z,4.80
2018-04-08T03:50:26.490Z,4.70
2018-04-08T03:52:53.976Z,4.60
2018-04-08T03:55:21.433Z,4.50
2018-04-08T03:57:48.895Z,4.50
2018-04-08T04:00:16.685Z,4.50
2018-04-08T04:02:44.141Z,4.50
2018-04-08T04:05:11.591Z,4.40
2018-04-08T04:07:40.742Z,4.50
2018-04-08T04:10:08.968Z,4.40
2018-04-08T04:12:36.424Z,4.50
2018-04-08T04:15:03.900Z,4.50
2018-04-08T04:17:34.897Z,4.40
2018-04-08T04:20:14.238Z,4.30
2018-04-08T04:22:53.415Z,4.30
2018-04-08T04:25:27.437Z,4.30
2018-04-08T04:27:54.906Z,4.50
2018-04-08T04:30:23.165Z,4.40
2018-04-08T04:32:55.424Z,4.30
2018-04-08T04:35:22.869Z,4.30
2018-04-08T04:37:51.161Z,4.40
2018-04-08T04:40:19.311Z,4.30
2018-04-08T04:42:46.776Z,4.30
2018-04-08T04:45:14.237Z,4.30
2018-04-08T04:47:45.885Z,4.30
2018-04-08T04:50:15.768Z,4.20
2018-04-08T04:52:44.946Z,4.30
2018-04-08T04:55:12.586Z,4.30
2018-04-08T04:57:40.804Z,4.50
2018-04-08T05:00:09.210Z,4.50
2018-04-08T05:02:36.689Z,4.80
2018-04-08T05:05:04.888Z,5.30
2018-04-08T05:07:32.448Z,5.20
2018-04-08T05:10:00.085Z,5.60
2018-04-08T05:12:28.305Z,6.00
2018-04-08T05:14:55.765Z,6.50
2018-04-08T05:17:23.222Z,7.00
2018-04-08T05:19:50.702Z,7.30
2018-04-08T05:22:18.158Z,7.40
2018-04-08T05:24:45.634Z,7.60
2018-04-08T05:27:13.151Z,7.80
2018-04-08T05:29:40.738Z,8.30
2018-04-08T05:32:08.184Z,8.70
2018-04-08T05:34:39.257Z,9.10
2018-04-08T05:37:06.851Z,9.50
2018-04-08T05:39:34.572Z,10.00
2018-04-08T05:42:02.058Z,10.30
2018-04-08T05:44:29.509Z,10.50
2018-04-08T05:46:56.962Z,10.60
2018-04-08T05:49:24.426Z,11.00
2018-04-08T05:51:51.876Z,11.50
2018-04-08T05:54:19.382Z,11.20
2018-04-08T05:56:46.838Z,10.60
2018-04-08T05:59:15.221Z,10.00
2018-04-08T06:01:43.034Z,9.60
2018-04-08T06:04:14.304Z,9.30
2018-04-08T06:06:42.549Z,8.90
2018-04-08T06:09:10.926Z,8.80
2018-04-08T06:11:38.418Z,8.80
2018-04-08T06:14:05.880Z,8.70
2018-04-08T06:16:33.689Z,8.70
2018-04-08T06:19:01.174Z,8.70
2018-04-08T06:21:33.529Z,8.80
2018-04-08T06:24:00.981Z,8.90
2018-04-08T06:26:28.495Z,8.90
2018-04-08T06:28:55.980Z,8.80
2018-04-08T06:31:24.313Z,8.90
2018-04-08T06:33:51.796Z,9.00
2018-04-08T06:36:19.251Z,9.00
2018-04-08T06:38:46.718Z,9.00
2018-04-08T06:41:14.216Z,9.10
2018-04-08T06:43:41.690Z,9.10
2018-04-08T06:46:09.147Z,9.30
2018-04-08T06:48:36.664Z,9.40
2018-04-08T06:51:08.519Z,9.50
2018-04-08T06:53:35.979Z,9.50
2018-04-08T06:56:03.486Z,9.50
2018-04-08T06:58:31.729Z,9.60
2018-04-08T07:00:59.198Z,9.60
2018-04-08T07:03:27.429Z,9.70
2018-04-08T07:05:59.743Z,9.70
2018-04-08T07:08:27.902Z,9.80
2018-04-08T07:10:55.504Z,9.90
2018-04-08T07:13:22.980Z,10.00
2018-04-08T07:15:50.688Z,10.10
2018-04-08T07:18:18.269Z,10.20
2018-04-08T07:20:52.897Z,10.20
2018-04-08T07:23:25.166Z,10.50
2018-04-08T07:25:53.406Z,10.40
2018-04-08T07:28:20.899Z,10.50
2018-04-08T07:30:49.117Z,10.60
2018-04-08T07:33:16.584Z,10.60
2018-04-08T07:35:47.097Z,10.80
2018-04-08T07:38:14.545Z,10.80
2018-04-08T07:40:42.963Z,10.90
2018-04-08T07:43:10.433Z,11.00
2018-04-08T07:45:37.906Z,11.10
2018-04-08T07:48:06.127Z,11.20
2018-04-08T07:50:37.150Z,11.20
2018-04-08T07:53:04.674Z,11.30
2018-04-08T07:55:33.037Z,11.40
2018-04-08T07:58:00.513Z,11.40
2018-04-08T08:00:27.973Z,11.60
2018-04-08T08:02:55.425Z,11.70
2018-04-08T08:05:23.009Z,11.80
2018-04-08T08:07:51.407Z,11.90
2018-04-08T08:10:18.854Z,11.90
2018-04-08T08:12:46.365Z,11.90
2018-04-08T08:15:13.839Z,12.00
2018-04-08T08:17:41.296Z,12.20
2018-04-08T08:20:08.777Z,12.20
2018-04-08T08:22:36.259Z,12.40
2018-04-08T08:25:03.760Z,12.30
2018-04-08T08:27:31.224Z,12.50
2018-04-08T08:29:58.697Z,12.50
2018-04-08T08:32:26.951Z,12.70
2018-04-08T08:34:54.481Z,12.70
2018-04-08T08:37:21.934Z,12.80
2018-04-08T08:39:49.541Z,12.90
2018-04-08T08:42:18.724Z,13.00
2018-04-08T08:44:46.195Z,13.00
2018-04-08T08:47:13.678Z,13.10
2018-04-08T08:49:41.252Z,13.10
2018-04-08T08:52:12.152Z,13.20
2018-04-08T08:54:39.606Z,13.20
2018-04-08T08:57:08.793Z,13.30
2018-04-08T08:59:36.241Z,13.30
2018-04-08T09:02:04.004Z,13.50
2018-04-08T09:04:31.461Z,13.60
2018-04-08T09:07:03.128Z,13.60
2018-04-08T09:09:31.366Z,13.70
2018-04-08T09:11:58.816Z,13.70
2018-04-08T09:14:26.318Z,13.80
2018-04-08T09:16:53.786Z,13.90
2018-04-08T09:19:28.733Z,14.00
2018-04-08T09:21:58.938Z,14.10
2018-04-08T09:24:26.405Z,14.10
2018-04-08T09:26:54.662Z,14.20
2018-04-08T09:29:22.146Z,14.20
2018-04-08T09:31:49.639Z,14.20
2018-04-08T09:34:18.009Z,14.30
2018-04-08T09:36:45.719Z,14.40
2018-04-08T09:39:13.165Z,14.40
2018-04-08T09:41:40.769Z,14.50
2018-04-08T09:44:08.608Z,14.50
2018-04-08T09:46:36.992Z,14.60
2018-04-08T09:49:04.488Z,14.70
2018-04-08T09:51:31.933Z,14.70
2018-04-08T09:53:59.398Z,14.70
2018-04-08T09:56:26.886Z,14.70
2018-04-08T09:58:54.378Z,14.70
2018-04-08T10:01:28.184Z,15.00
2018-04-08T10:03:57.407Z,15.00
2018-04-08T10:06:25.048Z,15.00
2018-04-08T10:08:52.520Z,15.10
2018-04-08T10:11:20.001Z,15.10
2018-04-08T10:13:48.217Z,15.40
2018-04-08T10:16:16.190Z,15.30
2018-04-08T10:18:43.673Z,15.40
2018-04-08T10:21:11.168Z,15.50
2018-04-08T10:23:38.821Z,15.60
2018-04-08T10:26:06.295Z,15.60
2018-04-08T10:28:33.794Z,15.60
2018-04-08T10:31:01.261Z,15.70
2018-04-08T10:33:28.868Z,15.70
2018-04-08T10:35:56.464Z,15.80
2018-04-08T10:38:25.120Z,15.80
2018-04-08T10:40:52.596Z,15.80
2018-04-08T10:43:20.070Z,15.80
2018-04-08T10:45:47.531Z,15.90
2018-04-08T10:48:15.006Z,16.10
2018-04-08T10:50:43.262Z,16.20
2018-04-08T10:53:10.739Z,16.30
2018-04-08T10:55:38.202Z,16.20
2018-04-08T10:58:05.656Z,16.30
2018-04-08T11:00:33.112Z,16.50
2018-04-08T11:03:04.212Z,16.60
2018-04-08T11:05:31.675Z,16.80
2018-04-08T11:07:59.451Z,16.80
2018-04-08T11:10:37.569Z,16.90
2018-04-08T11:13:05.863Z,16.90
2018-04-08T11:15:33.798Z,16.90
2018-04-08T11:18:01.265Z,16.90
2018-04-08T11:20:28.729Z,17.00
2018-04-08T11:22:56.286Z,17.10
2018-04-08T11:25:23.729Z,17.10
2018-04-08T11:27:51.448Z,17.20
2018-04-08T11:30:18.950Z,17.30
2018-04-08T11:32:46.398Z,17.40
2018-04-08T11:35:14.888Z,17.40
2018-04-08T11:37:42.359Z,17.30
2018-04-08T11:40:12.584Z,17.30
2018-04-08T11:42:40.076Z,17.40
2018-04-08T11:45:07.709Z,17.60
2018-04-08T11:47:35.176Z,17.80
2018-04-08T11:50:02.669Z,17.80
2018-04-08T11:52:30.389Z,17.50
2018-04-08T11:55:01.294Z,17.50
2018-04-08T11:57:32.899Z,17.60
2018-04-08T12:00:00.386Z,17.80
2018-04-08T12:02:27.893Z,18.00
2018-04-08T12:04:57.613Z,18.20
2018-04-08T12:07:25.119Z,18.20
2018-04-08T12:09:52.605Z,18.30
2018-04-08T12:12:20.974Z,18.30
2018-04-08T12:14:48.477Z,18.30
2018-04-08T12:17:15.925Z,18.30
2018-04-08T12:19:43.430Z,18.30
2018-04-08T12:22:10.956Z,18.40
2018-04-08T12:24:38.400Z,18.50
2018-04-08T12:27:11.874Z,18.60
2018-04-08T12:29:39.363Z,18.60
2018-04-08T12:32:06.836Z,18.60
2018-04-08T12:34:34.297Z,18.60
2018-04-08T12:37:01.773Z,18.60
2018-04-08T12:39:30.054Z,18.60
2018-04-08T12:41:57.562Z,18.60
2018-04-08T12:44:25.104Z,18.70
2018-04-08T12:46:54.237Z,18.90
2018-04-08T12:49:21.727Z,18.90
2018-04-08T12:51:50.164Z,18.80
2018-04-08T12:54:18.377Z,18.70
2018-04-08T12:56:45.825Z,18.70
2018-04-08T12:59:14.048Z,18.70
2018-04-08T13:01:42.305Z,19.10
2018-04-08T13:04:09.761Z,19.00
2018-04-08T13:06:37.311Z,19.10
2018-04-08T13:09:04.792Z,19.20
2018-04-08T13:11:33.007Z,19.20
2018-04-08T13:14:00.533Z,19.30
2018-04-08T13:16:28.635Z,19.30
2018-04-08T13:18:56.138Z,19.40
2018-04-08T13:21:23.594Z,19.50
2018-04-08T13:23:51.069Z,19.50
2018-04-08T13:26:28.608Z,19.50
2018-04-08T13:28:56.080Z,19.50
2018-04-08T13:31:23.576Z,19.50
2018-04-08T13:33:51.061Z,19.50
2018-04-08T13:36:18.507Z,19.60
2018-04-08T13:38:45.995Z,19.50
2018-04-08T13:41:13.599Z,19.50
2018-04-08T13:43:41.097Z,19.60
2018-04-08T13:46:08.548Z,19.70
2018-04-08T13:48:37.054Z,20.00
2018-04-08T13:51:04.560Z,20.00
2018-04-08T13:53:32.013Z,20.10
2018-04-08T13:56:00.254Z,20.20
2018-04-08T13:58:27.741Z,20.20
2018-04-08T14:00:55.828Z,20.30
2018-04-08T14:03:24.044Z,20.10
2018-04-08T14:05:51.508Z,20.10
2018-04-08T14:08:18.977Z,20.20
2018-04-08T14:10:46.465Z,20.30
2018-04-08T14:13:13.902Z,20.30
2018-04-08T14:15:41.523Z,20.30
2018-04-08T14:18:09.426Z,20.30
2018-04-08T14:20:36.898Z,20.30
2018-04-08T14:23:04.409Z,20.30
2018-04-08T14:25:31.862Z,20.20
2018-04-08T14:28:03.044Z,20.30
2018-04-08T14:30:30.523Z,20.50
2018-04-08T14:32:59.005Z,20.50
2018-04-08T14:35:27.208Z,20.50
2018-04-08T14:37:54.694Z,20.50
2018-04-08T14:40:22.150Z,20.50
2018-04-08T14:42:52.598Z,20.50
2018-04-08T14:45:20.083Z,20.50
2018-04-08T14:47:48.288Z,20.50
2018-04-08T14:50:15.764Z,20.40
2018-04-08T14:52:43.328Z,20.50
2018-04-08T14:55:10.846Z,20.50
2018-04-08T14:57:41.310Z,20.50
2018-04-08T15:00:09.211Z,20.50
2018-04-08T15:02:37.585Z,20.50
2018-04-08T15:05:05.081Z,20.50
2018-04-08T15:07:32.545Z,20.50
2018-04-08T15:10:00.876Z,20.50
2018-04-08T15:12:28.340Z,20.50
2018-04-08T15:14:56.173Z,20.50
2018-04-08T15:17:23.676Z,20.50
2018-04-08T15:19:52.560Z,20.50
2018-04-08T15:22:20.027Z,20.50
2018-04-08T15:24:48.243Z,20.50
2018-04-08T15:27:16.208Z,20.50
2018-04-08T15:29:45.231Z,20.60
2018-04-08T15:32:12.717Z,20.70
2018-04-08T15:34:41.093Z,20.70
2018-04-08T15:37:08.636Z,20.60
2018-04-08T15:39:36.088Z,20.60
2018-04-08T15:42:03.529Z,20.50
2018-04-08T15:44:31.030Z,20.60
2018-04-08T15:46:58.483Z,20.70
2018-04-08T15:49:26.023Z,20.70
2018-04-08T15:51:53.519Z,20.70
2018-04-08T15:54:21.017Z,20.70
2018-04-08T15:56:49.313Z,20.60
2018-04-08T15:59:16.799Z,20.60
2018-04-08T16:01:44.268Z,20.60
2018-04-08T16:04:12.488Z,20.50
2018-04-08T16:06:40.522Z,20.50
2018-04-08T16:09:08.888Z,20.50
2018-04-08T16:11:36.373Z,20.50
2018-04-08T16:14:03.834Z,20.50
2018-04-08T16:16:31.317Z,20.50
2018-04-08T16:18:58.804Z,20.40
2018-04-08T16:21:26.245Z,20.40
2018-04-08T16:23:53.693Z,20.40
2018-04-08T16:26:21.178Z,20.40
2018-04-08T16:28:49.407Z,20.30
2018-04-08T16:31:16.993Z,20.30
2018-04-08T16:33:44.428Z,20.20
2018-04-08T16:36:11.930Z,20.20
2018-04-08T16:38:39.409Z,20.20
2018-04-08T16:41:06.887Z,20.10
2018-04-08T16:43:35.994Z,20.10
2018-04-08T16:46:03.554Z,20.10
2018-04-08T16:48:31.139Z,20.00
2018-04-08T16:50:58.613Z,20.00
2018-04-08T16:53:26.154Z,20.00
2018-04-08T16:55:53.639Z,19.90
2018-04-08T16:58:21.113Z,19.80
2018-04-08T17:00:48.586Z,19.80
2018-04-08T17:03:16.064Z,19.70
2018-04-08T17:05:45.274Z,19.50
2018-04-08T17:08:12.985Z,19.50
2018-04-08T17:10:41.212Z,20.00
2018-04-08T17:13:08.952Z,20.00
2018-04-08T17:15:36.401Z,20.50
2018-04-08T17:18:04.078Z,20.90
2018-04-08T17:20:31.550Z,21.10
2018-04-08T17:22:59.004Z,21.20
2018-04-08T17:25:26.505Z,21.10
2018-04-08T17:27:54.277Z,20.90
2018-04-08T17:30:23.438Z,20.30
2018-04-08T17:32:50.921Z,20.30
2018-04-08T17:35:18.371Z,19.80
2018-04-08T17:37:45.847Z,19.30
2018-04-08T17:40:13.576Z,18.80
2018-04-08T17:42:42.600Z,18.20
2018-04-08T17:45:10.185Z,18.10
2018-04-08T17:47:37.649Z,17.80
2018-04-08T17:50:05.380Z,17.60
2018-04-08T17:52:32.858Z,17.40
2018-04-08T17:55:02.035Z,17.00
2018-04-08T17:57:30.240Z,16.80
2018-04-08T17:59:57.692Z,16.80
2018-04-08T18:02:30.527Z,16.40
2018-04-08T18:04:57.960Z,16.40
2018-04-08T18:07:26.392Z,16.20
2018-04-08T18:09:53.829Z,16.10
2018-04-08T18:12:22.047Z,16.00
2018-04-08T18:14:49.540Z,16.00
2018-04-08T18:17:16.989Z,15.90
2018-04-08T18:19:44.458Z,15.80
2018-04-08T18:22:12.035Z,15.70
2018-04-08T18:24:41.213Z,15.50
2018-04-08T18:27:09.482Z,15.40
2018-04-08T18:29:36.938Z,15.40
2018-04-08T18:32:09.638Z,15.30
2018-04-08T18:34:37.220Z,15.20
2018-04-08T18:37:05.622Z,15.10
2018-04-08T18:39:33.101Z,15.00
2018-04-08T18:42:00.570Z,14.90
2018-04-08T18:44:28.047Z,14.90
2018-04-08T18:46:55.597Z,14.80
2018-04-08T18:49:23.060Z,14.70
2018-04-08T18:51:51.289Z,14.40
2018-04-08T18:54:19.613Z,14.40
2018-04-08T18:56:48.593Z,14.20
2018-04-08T18:59:16.038Z,14.20
2018-04-08T19:01:47.201Z,14.20
2018-04-08T19:04:15.585Z,14.10
2018-04-08T19:06:44.736Z,14.10
2018-04-08T19:09:12.318Z,14.10
2018-04-08T19:11:40.006Z,14.20
2018-04-08T19:14:07.458Z,14.20
2018-04-08T19:16:34.937Z,14.20
2018-04-08T19:19:02.424Z,14.10
2018-04-08T19:21:29.879Z,14.00
2018-04-08T19:23:58.979Z,13.90
2018-04-08T19:26:26.438Z,13.80
2018-04-08T19:28:53.895Z,13.70
2018-04-08T19:31:21.377Z,13.60
2018-04-08T19:33:48.818Z,13.60
2018-04-08T19:36:16.286Z,13.40
2018-04-08T19:38:43.755Z,13.40
2018-04-08T19:41:12.346Z,13.30
2018-04-08T19:43:39.845Z,13.30
2018-04-08T19:46:07.293Z,13.20
2018-04-08T19:48:34.744Z,13.10
2018-04-08T19:51:02.341Z,13.10
2018-04-08T19:53:29.840Z,12.90
2018-04-08T19:55:58.073Z,12.70
2018-04-08T19:58:25.575Z,12.70
2018-04-08T20:00:53.124Z,12.60
2018-04-08T20:03:20.577Z,12.60
2018-04-08T20:05:48.139Z,12.50
2018-04-08T20:08:15.625Z,12.50
2018-04-08T20:10:43.092Z,12.40
2018-04-08T20:13:10.547Z,12.30
2018-04-08T20:15:39.717Z,12.00
2018-04-08T20:18:07.220Z,12.00
2018-04-08T20:20:34.684Z,11.90
2018-04-08T20:23:02.163Z,11.80
2018-04-08T20:25:29.613Z,11.50
2018-04-08T20:27:57.087Z,11.30
2018-04-08T20:30:24.724Z,11.30
2018-04-08T20:32:52.645Z,11.30
2018-04-08T20:35:20.125Z,11.30
2018-04-08T20:37:48.942Z,11.10
2018-04-08T20:40:16.406Z,11.10
2018-04-08T20:42:43.906Z,10.90
2018-04-08T20:45:11.393Z,10.70
2018-04-08T20:47:39.617Z,10.50
2018-04-08T20:50:10.824Z,10.50
2018-04-08T20:52:38.473Z,10.40
2018-04-08T20:55:05.944Z,10.30
2018-04-08T20:57:33.405Z,10.20
2018-04-08T21:00:00.924Z,10.20
2018-04-08T21:02:28.397Z,10.30
2018-04-08T21:04:56.585Z,10.10
2018-04-08T21:20:52.001Z,10.20
2018-04-08T21:23:19.478Z,10.20
2018-04-08T21:25:46.961Z,10.10
2018-04-08T21:28:14.452Z,10.10
2018-04-08T21:30:41.913Z,10.00
2018-04-08T21:33:11.333Z,9.90
2018-04-08T21:35:39.146Z,9.70
2018-04-08T21:38:06.772Z,9.80
2018-04-08T21:40:34.222Z,9.90
2018-04-08T21:43:01.743Z,9.90
2018-04-08T21:45:29.418Z,9.90
2018-04-08T21:47:56.898Z,9.90
2018-04-08T21:53:06.868Z,9.70
2018-04-08T21:55:34.372Z,9.70
2018-04-08T21:58:06.405Z,9.50
2018-04-08T22:03:11.764Z,9.40
2018-04-08T22:05:40.350Z,9.30
2018-04-08T22:08:09.073Z,9.20
2018-04-08T22:10:42.186Z,9.10
2018-04-08T22:13:09.703Z,9.00
2018-04-08T22:15:37.149Z,9.00
2018-04-08T22:18:05.406Z,8.80
2018-04-08T22:20:32.859Z,8.70
2018-04-08T22:23:28.813Z,8.70
2018-04-08T22:38:51.305Z,8.60
2018-04-08T22:41:18.756Z,8.40
2018-04-08T22:43:46.293Z,8.40
2018-04-08T22:46:13.782Z,8.40
2018-04-08T22:48:41.485Z,8.30
2018-04-08T22:51:13.244Z,8.30
2018-04-08T22:53:40.771Z,8.20
2018-04-08T22:56:08.215Z,8.20
2018-04-08T22:58:35.669Z,8.10
2018-04-08T23:01:03.129Z,8.00
2018-04-08T23:03:30.603Z,7.90
2018-04-08T23:06:01.913Z,7.90
2018-04-08T23:08:30.134Z,7.70
2018-04-08T23:10:57.609Z,7.70
2018-04-08T23:13:25.052Z,7.80
2018-04-08T23:15:52.525Z,7.90
2018-04-08T23:18:20.027Z,8.00
2018-04-08T23:20:47.497Z,7.90
2018-04-08T23:23:16.691Z,7.90
2018-04-08T23:25:44.185Z,7.90
2018-04-08T23:28:11.661Z,7.80
2018-04-08T23:30:39.100Z,8.10
2018-04-08T23:33:06.572Z,8.30
2018-04-08T23:35:34.025Z,8.40
2018-04-08T23:38:04.961Z,8.30
2018-04-08T23:40:32.421Z,8.20
2018-04-08T23:42:59.862Z,8.10
2018-04-08T23:45:27.347Z,8.00
2018-04-08T23:47:55.596Z,7.80
2018-04-08T23:50:23.131Z,7.80
2018-04-08T23:52:55.220Z,7.70
2018-04-08T23:55:22.671Z,7.60
2018-04-08T23:57:50.113Z,7.50
